Time;durP1;ratioP1;P1;durP2;ratioP2;P2;SDS_P1;SDS_P2;PMS_P1;PMS_P2;Temp;Humidity;BMP_temperature;BMP_pressure;BME280_temperature;BME280_humidity;BME280_pressure;Samples;Min_cycle;Max_cycle;Signal;HPM_P1;HPM_P2
2022/01/18 00:00:46;;;;;;;5.67;3.07;;;;;;;;;;4415421;32;20302;-51
2022/01/18 00:03:12;;;;;;;5.80;3.00;;;;;;;;;;4400614;32;20342;-51
2022/01/18 00:05:38;;;;;;;6.57;3.90;;;;;;;;;;4410820;32;20252;-51
2022/01/18 00:08:04;;;;;;;6.63;3.97;;;;;;;;;;4415196;32;20609;-52
2022/01/18 00:10:32;;;;;;;7.27;4.60;;;;;;;;;;4399088;32;20344;-52
2022/01/18 00:15:55;;;;;;;7.80;4.03;;;;;;;;;;4415555;32;20381;-52
2022/01/18 00:18:21;;;;;;;6.73;3.33;;;;;;;;;;4406311;32;20234;-53
2022/01/18 00:23:23;;;;;;;3.83;2.50;;;;;;;;;;4399689;32;20827;-52
2022/01/18 00:25:53;;;;;;;4.37;2.60;;;;;;;;;;4411542;32;20290;-53
2022/01/18 00:28:19;;;;;;;3.87;2.53;;;;;;;;;;4398789;32;20257;-52
2022/01/18 00:36:08;;;;;;;4.90;2.57;;;;;;;;;;4415364;32;20271;-53
2022/01/18 00:38:45;;;;;;;7.00;2.97;;;;;;;;;;4396678;32;20285;-52
2022/01/18 00:41:12;;;;;;;6.73;3.30;;;;;;;;;;4388114;32;20241;-53
2022/01/18 00:43:39;;;;;;;6.97;4.17;;;;;;;;;;4392161;32;20213;-52
2022/01/18 00:46:05;;;;;;;12.77;6.93;;;;;;;;;;4403922;32;20299;-53
2022/01/18 00:48:35;;;;;;;4.60;3.53;;;;;;;;;;4397865;32;20202;-53
2022/01/18 00:51:04;;;;;;;4.00;3.17;;;;;;;;;;4387908;32;20595;-53
2022/01/18 00:53:35;;;;;;;4.57;2.97;;;;;;;;;;4388411;32;20586;-54
2022/01/18 00:58:26;;;;;;;3.93;3.43;;;;;;;;;;4403575;32;20265;-52
2022/01/18 01:00:51;;;;;;;5.67;3.27;;;;;;;;;;4403014;32;20225;-51
2022/01/18 01:03:17;;;;;;;5.23;3.37;;;;;;;;;;4399624;32;20292;-52
2022/01/18 01:05:43;;;;;;;4.43;2.80;;;;;;;;;;4400849;32;20260;-52
2022/01/18 01:08:08;;;;;;;6.23;3.57;;;;;;;;;;4388114;32;20528;-51
2022/01/18 01:10:33;;;;;;;5.27;2.90;;;;;;;;;;4412617;32;20221;-51
2022/01/18 01:12:59;;;;;;;4.40;2.93;;;;;;;;;;4408749;32;20589;-51
2022/01/18 01:15:26;;;;;;;2.73;2.40;;;;;;;;;;4418232;32;20681;-51
2022/01/18 01:41:40;;;;;;;4.30;3.20;;;;;;;;;;4402242;32;20290;-51
2022/01/18 01:44:51;;;;;;;5.87;3.63;;;;;;;;;;4417757;32;20766;-51
2022/01/18 01:47:20;;;;;;;7.07;3.30;;;;;;;;;;4406588;32;20550;-52
2022/01/18 01:49:49;;;;;;;3.37;2.43;;;;;;;;;;4410272;32;20236;-51
2022/01/18 01:52:15;;;;;;;4.03;2.87;;;;;;;;;;4412127;32;20230;-51
2022/01/18 01:54:40;;;;;;;4.13;2.70;;;;;;;;;;4401237;32;20221;-51
2022/01/18 01:57:07;;;;;;;7.20;3.07;;;;;;;;;;4418068;32;20229;-51
2022/01/18 01:59:32;;;;;;;2.83;2.17;;;;;;;;;;4417778;32;20229;-51
2022/01/18 02:01:58;;;;;;;4.50;2.83;;;;;;;;;;4417355;32;20680;-52
2022/01/18 02:04:23;;;;;;;4.07;2.53;;;;;;;;;;4397336;32;20264;-51
2022/01/18 02:06:49;;;;;;;13.57;2.10;;;;;;;;;;4416474;32;20261;-51
2022/01/18 02:09:15;;;;;;;3.77;2.53;;;;;;;;;;4417320;32;20222;-51
2022/01/18 02:11:40;;;;;;;3.50;1.93;;;;;;;;;;4412012;32;20339;-51
2022/01/18 02:14:11;;;;;;;2.87;2.17;;;;;;;;;;4410809;32;20669;-52
2022/01/18 02:22:06;;;;;;;3.20;2.10;;;;;;;;;;4387600;32;20280;-53
2022/01/18 02:24:31;;;;;;;2.70;2.00;;;;;;;;;;4399354;32;20209;-52
2022/01/18 02:26:57;;;;;;;5.07;2.27;;;;;;;;;;4417910;32;20225;-53
2022/01/18 02:29:22;;;;;;;2.93;1.77;;;;;;;;;;4410917;32;20292;-54
2022/01/18 02:31:48;;;;;;;2.07;1.63;;;;;;;;;;4402695;32;20230;-52
2022/01/18 02:34:17;;;;;;;10.83;2.07;;;;;;;;;;4405812;32;20208;-53
2022/01/18 02:36:43;;;;;;;2.03;1.70;;;;;;;;;;4397112;32;20226;-52
2022/01/18 02:39:09;;;;;;;3.10;2.03;;;;;;;;;;4386922;32;20310;-51
2022/01/18 02:41:35;;;;;;;6.10;2.00;;;;;;;;;;4388098;32;20338;-52
2022/01/18 02:44:12;;;;;;;3.33;1.90;;;;;;;;;;4392452;32;20749;-52
2022/01/18 02:46:38;;;;;;;2.20;1.50;;;;;;;;;;4405540;32;20684;-51
2022/01/18 02:49:05;;;;;;;2.33;1.60;;;;;;;;;;4400209;32;20230;-51
2022/01/18 02:51:32;;;;;;;1.80;1.47;;;;;;;;;;4420816;32;20221;-51
2022/01/18 02:54:07;;;;;;;1.43;1.33;;;;;;;;;;4418382;32;20228;-51
2022/01/18 02:56:36;;;;;;;3.47;1.73;;;;;;;;;;4421147;32;20294;-51
2022/01/18 03:04:17;;;;;;;14.43;4.00;;;;;;;;;;4409460;32;20239;-52
2022/01/18 03:06:42;;;;;;;7.63;3.03;;;;;;;;;;4403395;32;20241;-52
2022/01/18 03:09:08;;;;;;;7.03;3.47;;;;;;;;;;4396610;32;20280;-52
2022/01/18 03:11:33;;;;;;;3.23;2.53;;;;;;;;;;4390315;32;20709;-52
2022/01/18 03:13:59;;;;;;;2.83;1.67;;;;;;;;;;4407741;32;20316;-52
2022/01/18 03:16:24;;;;;;;3.20;1.40;;;;;;;;;;4405364;32;20264;-53
2022/01/18 03:18:50;;;;;;;1.53;1.40;;;;;;;;;;4405518;32;20253;-53
2022/01/18 03:21:15;;;;;;;3.37;1.83;;;;;;;;;;4420055;32;20282;-52
2022/01/18 03:23:40;;;;;;;2.30;1.73;;;;;;;;;;4419773;32;20255;-53
2022/01/18 03:26:15;;;;;;;2.30;1.87;;;;;;;;;;4405828;32;20678;-53
2022/01/18 03:28:40;;;;;;;1.83;1.53;;;;;;;;;;4415975;32;20213;-52
2022/01/18 03:31:06;;;;;;;4.27;1.90;;;;;;;;;;4413419;32;20405;-52
2022/01/18 03:33:31;;;;;;;2.23;1.73;;;;;;;;;;4401567;32;20364;-52
2022/01/18 03:35:57;;;;;;;2.10;1.53;;;;;;;;;;4407757;32;20321;-52
2022/01/18 03:38:30;;;;;;;1.77;1.53;;;;;;;;;;4404878;32;20194;-52
2022/01/18 03:41:01;;;;;;;2.93;1.53;;;;;;;;;;4419450;32;20252;-52
2022/01/18 03:43:31;;;;;;;3.13;1.93;;;;;;;;;;4420037;32;20255;-52
2022/01/18 03:46:01;;;;;;;2.30;1.80;;;;;;;;;;4419179;32;20291;-52
2022/01/18 03:48:32;;;;;;;2.90;1.80;;;;;;;;;;4420078;32;20193;-52
2022/01/18 03:50:58;;;;;;;3.17;1.83;;;;;;;;;;4419594;32;20292;-52
2022/01/18 03:53:23;;;;;;;2.27;1.57;;;;;;;;;;4419460;32;20311;-51
2022/01/18 03:55:50;;;;;;;4.33;2.47;;;;;;;;;;4401992;32;20605;-51
2022/01/18 03:58:15;;;;;;;5.53;2.10;;;;;;;;;;4389610;32;20298;-51
2022/01/18 04:00:41;;;;;;;4.40;2.37;;;;;;;;;;4415476;32;20272;-51
2022/01/18 04:03:07;;;;;;;4.10;1.67;;;;;;;;;;4419778;32;20291;-52
2022/01/18 04:05:33;;;;;;;6.40;2.33;;;;;;;;;;4419249;32;20724;-52
2022/01/18 04:07:58;;;;;;;4.50;2.27;;;;;;;;;;4419415;32;20279;-53
2022/01/18 04:10:23;;;;;;;3.60;2.50;;;;;;;;;;4408197;32;20209;-51
2022/01/18 04:12:49;;;;;;;3.77;2.10;;;;;;;;;;4408102;32;20224;-52
2022/01/18 04:15:16;;;;;;;3.20;2.53;;;;;;;;;;4420121;32;20751;-54
2022/01/18 04:28:44;;;;;;;2.43;2.10;;;;;;;;;;4409008;32;20336;-52
2022/01/18 04:31:10;;;;;;;3.10;2.27;;;;;;;;;;4403058;32;20286;-50
2022/01/18 04:33:37;;;;;;;5.53;3.13;;;;;;;;;;4402687;32;20714;-52
2022/01/18 04:36:04;;;;;;;4.93;2.73;;;;;;;;;;4400906;32;20681;-50
2022/01/18 04:38:30;;;;;;;5.43;2.30;;;;;;;;;;4403730;32;20202;-51
2022/01/18 04:41:03;;;;;;;7.57;3.10;;;;;;;;;;4411766;32;20252;-51
2022/01/18 04:49:18;;;;;;;10.00;4.30;;;;;;;;;;4401947;32;20304;-51
2022/01/18 04:51:46;;;;;;;5.47;2.60;;;;;;;;;;4381314;32;20250;-50
2022/01/18 04:54:12;;;;;;;8.27;3.07;;;;;;;;;;4379158;32;20548;-50
2022/01/18 04:59:09;;;;;;;5.20;3.00;;;;;;;;;;4393289;32;20279;-50
2022/01/18 05:01:36;;;;;;;5.23;2.30;;;;;;;;;;4412351;32;20376;-52
2022/01/18 05:04:02;;;;;;;4.80;2.50;;;;;;;;;;4398344;32;20728;-50
2022/01/18 05:06:27;;;;;;;4.73;2.37;;;;;;;;;;4411011;32;20229;-50
2022/01/18 05:08:54;;;;;;;4.63;3.23;;;;;;;;;;4416952;32;20270;-51
2022/01/18 05:11:22;;;;;;;9.47;4.30;;;;;;;;;;4417478;32;20624;-50
2022/01/18 05:14:06;;;;;;;7.47;3.83;;;;;;;;;;4402519;32;20245;-50
2022/01/18 05:24:30;;;;;;;8.77;4.43;;;;;;;;;;4402946;32;20216;-52
2022/01/18 05:26:56;;;;;;;10.13;4.80;;;;;;;;;;4413929;32;20295;-51
2022/01/18 05:29:22;;;;;;;11.87;4.57;;;;;;;;;;4408846;32;20343;-51
2022/01/18 05:31:48;;;;;;;9.30;4.57;;;;;;;;;;4406189;32;20263;-51
2022/01/18 05:34:15;;;;;;;5.50;3.73;;;;;;;;;;4388688;32;20217;-51
2022/01/18 05:36:40;;;;;;;4.03;2.30;;;;;;;;;;4412436;32;20258;-51
2022/01/18 05:39:09;;;;;;;5.80;3.20;;;;;;;;;;4417297;32;20304;-52
2022/01/18 05:41:35;;;;;;;6.43;2.60;;;;;;;;;;4406181;32;20234;-50
2022/01/18 05:44:01;;;;;;;8.77;3.77;;;;;;;;;;4386759;32;20628;-51
2022/01/18 05:46:26;;;;;;;4.90;2.90;;;;;;;;;;4403451;32;20213;-50
2022/01/18 05:48:52;;;;;;;5.00;3.20;;;;;;;;;;4393374;32;20376;-51
2022/01/18 05:51:17;;;;;;;2.80;2.20;;;;;;;;;;4389936;32;20309;-50
2022/01/18 05:53:43;;;;;;;2.40;1.97;;;;;;;;;;4401717;32;20362;-52
2022/01/18 05:56:11;;;;;;;4.87;2.90;;;;;;;;;;4407760;32;20253;-51
2022/01/18 05:58:38;;;;;;;8.70;3.77;;;;;;;;;;4416914;32;20240;-52
2022/01/18 06:01:03;;;;;;;6.70;2.83;;;;;;;;;;4406839;32;20348;-52
2022/01/18 06:03:38;;;;;;;9.17;4.03;;;;;;;;;;4417536;32;20287;-51
2022/01/18 06:08:47;;;;;;;5.50;3.47;;;;;;;;;;4404606;32;20266;-54
2022/01/18 06:11:13;;;;;;;14.33;4.40;;;;;;;;;;4408162;32;20323;-53
2022/01/18 06:13:39;;;;;;;9.97;4.63;;;;;;;;;;4417247;32;20287;-53
2022/01/18 06:16:04;;;;;;;10.83;5.03;;;;;;;;;;4402374;32;20230;-51
2022/01/18 06:18:30;;;;;;;10.00;4.73;;;;;;;;;;4390014;32;20289;-51
2022/01/18 06:20:55;;;;;;;83.27;42.27;;;;;;;;;;4406482;32;20280;-51
2022/01/18 06:23:21;;;;;;;76.63;35.07;;;;;;;;;;4417091;32;20315;-51
2022/01/18 06:25:47;;;;;;;41.43;17.57;;;;;;;;;;4414518;32;20576;-51
2022/01/18 06:28:13;;;;;;;200.83;80.43;;;;;;;;;;4412075;32;20222;-51
2022/01/18 06:30:38;;;;;;;48.80;22.57;;;;;;;;;;4409124;32;20232;-52
2022/01/18 06:33:04;;;;;;;22.10;12.87;;;;;;;;;;4397271;32;20804;-53
2022/01/18 06:35:30;;;;;;;19.63;9.60;;;;;;;;;;4397380;32;20688;-52
2022/01/18 06:37:56;;;;;;;32.70;16.17;;;;;;;;;;4405134;32;20336;-53
2022/01/18 06:40:21;;;;;;;26.47;13.83;;;;;;;;;;4409307;32;20487;-52
2022/01/18 06:42:47;;;;;;;38.70;19.73;;;;;;;;;;4392111;32;20287;-52
2022/01/18 06:45:12;;;;;;;39.23;21.20;;;;;;;;;;4396875;32;20239;-52
2022/01/18 06:47:38;;;;;;;28.50;14.37;;;;;;;;;;4419671;32;20267;-52
2022/01/18 06:50:06;;;;;;;16.07;9.23;;;;;;;;;;4416120;32;20239;-52
2022/01/18 06:52:31;;;;;;;20.53;9.93;;;;;;;;;;4419756;32;20224;-51
2022/01/18 06:54:57;;;;;;;11.00;6.50;;;;;;;;;;4419958;32;20776;-51
2022/01/18 06:57:23;;;;;;;16.47;9.60;;;;;;;;;;4420256;32;20221;-51
2022/01/18 06:59:48;;;;;;;7.87;4.57;;;;;;;;;;4410346;32;20861;-51
2022/01/18 07:02:14;;;;;;;9.63;5.30;;;;;;;;;;4389290;32;20233;-52
2022/01/18 07:04:39;;;;;;;14.00;5.60;;;;;;;;;;4390450;32;20288;-52
2022/01/18 07:07:05;;;;;;;16.90;9.00;;;;;;;;;;4415072;32;20325;-50
2022/01/18 07:09:32;;;;;;;38.40;19.30;;;;;;;;;;4390033;32;20355;-50
2022/01/18 07:11:59;;;;;;;18.13;7.77;;;;;;;;;;4407285;32;20237;-52
2022/01/18 07:14:25;;;;;;;16.77;7.47;;;;;;;;;;4418548;32;20618;-52
2022/01/18 07:16:50;;;;;;;24.60;10.17;;;;;;;;;;4420069;32;20282;-51
2022/01/18 07:19:16;;;;;;;30.13;13.33;;;;;;;;;;4416513;32;20280;-52
2022/01/18 07:21:42;;;;;;;41.37;19.90;;;;;;;;;;4390129;32;20362;-51
2022/01/18 07:24:24;;;;;;;31.40;12.77;;;;;;;;;;4389725;32;20682;-52
2022/01/18 07:26:50;;;;;;;24.90;11.23;;;;;;;;;;4407699;32;20548;-52
2022/01/18 07:29:15;;;;;;;22.40;12.07;;;;;;;;;;4397538;32;20318;-52
2022/01/18 07:31:41;;;;;;;14.40;6.53;;;;;;;;;;4399213;32;20296;-52
2022/01/18 07:34:07;;;;;;;9.13;4.77;;;;;;;;;;4389420;32;20273;-51
2022/01/18 07:36:32;;;;;;;28.87;11.83;;;;;;;;;;4415966;32;20775;-52
2022/01/18 07:38:57;;;;;;;14.40;6.37;;;;;;;;;;4417149;32;20311;-53
2022/01/18 07:41:23;;;;;;;22.27;12.57;;;;;;;;;;4412691;32;20252;-52
2022/01/18 07:43:49;;;;;;;21.40;12.10;;;;;;;;;;4404003;32;20454;-51
2022/01/18 07:46:14;;;;;;;16.67;7.70;;;;;;;;;;4399256;32;20225;-51
2022/01/18 07:48:39;;;;;;;6.57;4.03;;;;;;;;;;4396850;32;20335;-53
2022/01/18 07:51:05;;;;;;;12.97;5.63;;;;;;;;;;4402270;32;20318;-52
2022/01/18 07:53:30;;;;;;;13.60;6.23;;;;;;;;;;4388619;32;20372;-52
2022/01/18 07:55:56;;;;;;;8.80;4.77;;;;;;;;;;4405805;32;20707;-52
2022/01/18 07:58:21;;;;;;;10.00;3.83;;;;;;;;;;4403920;32;20293;-52
2022/01/18 08:00:50;;;;;;;6.30;3.70;;;;;;;;;;4405889;32;20221;-52
2022/01/18 08:03:15;;;;;;;5.23;3.73;;;;;;;;;;4394225;32;20269;-51
2022/01/18 08:05:41;;;;;;;2.77;2.43;;;;;;;;;;4405700;32;20229;-51
2022/01/18 08:08:06;;;;;;;6.20;4.03;;;;;;;;;;4394425;32;20292;-51
2022/01/18 08:10:32;;;;;;;10.47;3.50;;;;;;;;;;4398755;32;20221;-52
2022/01/18 08:13:01;;;;;;;8.77;3.33;;;;;;;;;;4410436;32;20233;-52
2022/01/18 08:15:36;;;;;;;9.97;4.63;;;;;;;;;;4399085;32;20621;-52
2022/01/18 08:18:02;;;;;;;7.70;4.17;;;;;;;;;;4396409;32;20229;-52
2022/01/18 08:20:27;;;;;;;5.77;2.63;;;;;;;;;;4402222;32;20276;-53
2022/01/18 08:22:52;;;;;;;6.10;3.17;;;;;;;;;;4402069;32;20238;-51
2022/01/18 08:25:18;;;;;;;10.00;4.70;;;;;;;;;;4394832;32;20320;-52
2022/01/18 08:27:45;;;;;;;10.20;5.40;;;;;;;;;;4405977;32;20218;-52
2022/01/18 08:30:13;;;;;;;10.53;5.80;;;;;;;;;;4404614;32;20636;-53
2022/01/18 08:32:39;;;;;;;6.77;3.40;;;;;;;;;;4388565;32;20234;-52
2022/01/18 08:35:05;;;;;;;8.33;4.70;;;;;;;;;;4394998;32;20292;-52
2022/01/18 08:37:31;;;;;;;3.60;2.50;;;;;;;;;;4398117;32;20642;-53
2022/01/18 08:39:56;;;;;;;5.70;3.60;;;;;;;;;;4403229;32;20334;-52
2022/01/18 08:42:22;;;;;;;10.67;4.00;;;;;;;;;;4406234;32;20380;-52
2022/01/18 08:44:48;;;;;;;11.47;4.03;;;;;;;;;;4403634;32;20660;-52
2022/01/18 08:47:14;;;;;;;4.17;2.90;;;;;;;;;;4398891;32;20332;-53
2022/01/18 08:49:40;;;;;;;5.83;3.73;;;;;;;;;;4386523;32;20302;-52
2022/01/18 08:52:06;;;;;;;8.63;3.30;;;;;;;;;;4400531;32;20550;-53
2022/01/18 08:54:32;;;;;;;5.40;2.77;;;;;;;;;;4396443;32;20377;-52
2022/01/18 08:56:57;;;;;;;6.03;2.23;;;;;;;;;;4413122;32;20312;-53
2022/01/18 08:59:24;;;;;;;5.43;3.40;;;;;;;;;;4393985;32;20370;-52
2022/01/18 09:01:50;;;;;;;5.30;2.60;;;;;;;;;;4414865;32;20253;-53
2022/01/18 09:04:15;;;;;;;5.33;2.60;;;;;;;;;;4386509;32;20263;-54
2022/01/18 09:06:41;;;;;;;4.73;2.77;;;;;;;;;;4397089;32;20250;-54
2022/01/18 09:09:08;;;;;;;8.07;2.67;;;;;;;;;;4387845;32;20300;-53
2022/01/18 09:11:34;;;;;;;7.17;4.20;;;;;;;;;;4409993;32;20252;-53
2022/01/18 09:13:59;;;;;;;7.43;2.90;;;;;;;;;;4401100;32;20234;-52
2022/01/18 09:16:25;;;;;;;3.57;2.70;;;;;;;;;;4400283;32;20257;-52
2022/01/18 09:18:50;;;;;;;18.13;3.53;;;;;;;;;;4393946;32;20720;-54
2022/01/18 09:21:17;;;;;;;10.10;6.63;;;;;;;;;;4410744;32;20289;-52
2022/01/18 09:23:43;;;;;;;10.17;5.57;;;;;;;;;;4390358;32;20682;-53
2022/01/18 09:26:08;;;;;;;4.90;3.77;;;;;;;;;;4407508;32;20229;-53
2022/01/18 09:28:34;;;;;;;12.83;4.73;;;;;;;;;;4399310;32;20232;-51
2022/01/18 09:31:00;;;;;;;6.23;4.17;;;;;;;;;;4413842;32;20271;-53
2022/01/18 09:33:25;;;;;;;11.57;4.40;;;;;;;;;;4393064;32;20414;-54
2022/01/18 09:35:51;;;;;;;12.20;3.10;;;;;;;;;;4407727;32;20308;-53
2022/01/18 09:38:16;;;;;;;7.43;4.10;;;;;;;;;;4393083;32;20360;-52
2022/01/18 09:40:44;;;;;;;4.50;2.63;;;;;;;;;;4393526;32;20650;-53
2022/01/18 09:43:13;;;;;;;7.23;3.27;;;;;;;;;;4392506;32;20241;-52
2022/01/18 09:45:43;;;;;;;4.33;3.30;;;;;;;;;;4399137;32;20309;-53
2022/01/18 09:48:10;;;;;;;5.70;3.27;;;;;;;;;;4407447;32;20740;-53
2022/01/18 09:50:37;;;;;;;7.63;2.60;;;;;;;;;;4395248;32;20260;-54
2022/01/18 09:53:06;;;;;;;5.67;3.00;;;;;;;;;;4392852;32;20419;-54
2022/01/18 09:55:33;;;;;;;7.20;3.83;;;;;;;;;;4398023;32;20249;-53
2022/01/18 09:58:00;;;;;;;6.20;3.30;;;;;;;;;;4397226;32;20244;-52
2022/01/18 10:00:30;;;;;;;7.40;3.07;;;;;;;;;;4389541;32;20243;-52
2022/01/18 10:02:56;;;;;;;13.77;6.17;;;;;;;;;;4393235;32;20602;-54
2022/01/18 10:05:25;;;;;;;9.43;4.03;;;;;;;;;;4405337;32;20296;-53
2022/01/18 10:08:10;;;;;;;4.07;2.83;;;;;;;;;;4396954;32;20272;-52
2022/01/18 10:10:44;;;;;;;4.57;3.40;;;;;;;;;;4398726;32;20375;-53
2022/01/18 10:13:29;;;;;;;5.43;3.83;;;;;;;;;;4410303;32;20296;-52
2022/01/18 10:16:20;;;;;;;10.67;4.97;;;;;;;;;;4416524;32;20261;-54
2022/01/18 10:18:51;;;;;;;5.17;3.33;;;;;;;;;;4393940;32;20504;-53
2022/01/18 10:21:22;;;;;;;5.10;3.47;;;;;;;;;;4411259;32;20248;-53
2022/01/18 10:23:51;;;;;;;5.13;2.30;;;;;;;;;;4390920;32;20288;-52
2022/01/18 10:26:25;;;;;;;4.23;2.60;;;;;;;;;;4396850;32;20257;-52
2022/01/18 10:29:04;;;;;;;10.47;5.37;;;;;;;;;;4395195;32;20584;-52
2022/01/18 10:31:42;;;;;;;10.87;4.63;;;;;;;;;;4412280;32;20713;-52
2022/01/18 10:34:41;;;;;;;5.57;2.77;;;;;;;;;;4389651;32;20556;-52
2022/01/18 10:37:12;;;;;;;4.80;2.70;;;;;;;;;;4411623;32;20218;-53
2022/01/18 10:39:47;;;;;;;11.17;4.93;;;;;;;;;;4385679;32;20241;-53
2022/01/18 10:42:20;;;;;;;7.53;3.57;;;;;;;;;;4386293;32;20418;-53
2022/01/18 10:44:57;;;;;;;5.43;2.77;;;;;;;;;;4394938;32;20515;-53
2022/01/18 10:47:25;;;;;;;6.83;3.33;;;;;;;;;;4400855;32;20415;-53
2022/01/18 10:49:50;;;;;;;7.57;4.73;;;;;;;;;;4400162;32;20252;-52
2022/01/18 10:52:22;;;;;;;8.03;3.70;;;;;;;;;;4397216;32;20650;-54
2022/01/18 10:54:55;;;;;;;10.43;4.20;;;;;;;;;;4387294;32;20608;-53
2022/01/18 10:57:26;;;;;;;5.67;3.67;;;;;;;;;;4408347;32;20253;-53
2022/01/18 11:00:12;;;;;;;6.23;3.60;;;;;;;;;;4394951;32;20229;-52
2022/01/18 11:02:43;;;;;;;4.73;2.63;;;;;;;;;;4396435;32;20214;-53
2022/01/18 11:05:15;;;;;;;11.57;6.33;;;;;;;;;;4399110;32;20225;-53
2022/01/18 11:07:42;;;;;;;3.83;2.17;;;;;;;;;;4405258;32;20667;-53
2022/01/18 11:10:08;;;;;;;16.43;8.50;;;;;;;;;;4390330;32;20217;-53
2022/01/18 11:12:43;;;;;;;9.93;5.90;;;;;;;;;;4399578;32;20221;-54
2022/01/18 11:15:15;;;;;;;5.20;3.30;;;;;;;;;;4416655;32;20730;-53
2022/01/18 11:17:43;;;;;;;10.93;5.83;;;;;;;;;;4404989;32;20278;-53
2022/01/18 11:20:09;;;;;;;22.13;8.97;;;;;;;;;;4405076;32;20260;-52
2022/01/18 11:22:36;;;;;;;14.73;6.33;;;;;;;;;;4418123;32;20221;-53
2022/01/18 11:25:03;;;;;;;8.80;4.97;;;;;;;;;;4418553;32;20383;-53
2022/01/18 11:27:30;;;;;;;12.33;5.83;;;;;;;;;;4387801;32;20245;-52
2022/01/18 11:29:56;;;;;;;9.90;3.33;;;;;;;;;;4402766;32;20279;-53
2022/01/18 11:32:26;;;;;;;3.27;2.10;;;;;;;;;;4389839;32;20328;-52
2022/01/18 11:35:01;;;;;;;5.77;2.97;;;;;;;;;;4403318;32;20344;-53
2022/01/18 11:37:54;;;;;;;16.90;5.07;;;;;;;;;;4387907;32;20314;-53
2022/01/18 11:40:21;;;;;;;5.10;2.63;;;;;;;;;;4399739;32;20213;-52
2022/01/18 11:42:57;;;;;;;6.43;3.73;;;;;;;;;;4388239;32;20214;-53
2022/01/18 11:45:25;;;;;;;7.57;3.37;;;;;;;;;;4400748;32;20357;-52
2022/01/18 11:47:59;;;;;;;10.00;3.57;;;;;;;;;;4398667;32;20213;-52
2022/01/18 11:50:33;;;;;;;5.27;3.30;;;;;;;;;;4398848;32;20330;-53
2022/01/18 11:53:24;;;;;;;5.90;3.43;;;;;;;;;;4397508;32;20241;-54
2022/01/18 11:55:58;;;;;;;12.53;3.87;;;;;;;;;;4390369;32;20354;-52
2022/01/18 11:58:26;;;;;;;5.67;3.43;;;;;;;;;;4388748;32;20290;-53
2022/01/18 12:01:02;;;;;;;6.57;3.73;;;;;;;;;;4407254;32;20256;-53
2022/01/18 12:03:31;;;;;;;7.60;4.30;;;;;;;;;;4387330;32;20439;-53
2022/01/18 12:05:59;;;;;;;7.67;3.77;;;;;;;;;;4396806;32;20230;-53
2022/01/18 12:08:32;;;;;;;6.50;3.43;;;;;;;;;;4388384;32;20293;-53
2022/01/18 12:10:58;;;;;;;7.57;3.50;;;;;;;;;;4395227;32;20372;-53
2022/01/18 12:13:30;;;;;;;7.63;4.43;;;;;;;;;;4409488;32;20265;-53
2022/01/18 12:15:59;;;;;;;10.27;5.30;;;;;;;;;;4401884;32;20344;-54
2022/01/18 12:18:27;;;;;;;12.17;6.60;;;;;;;;;;4387654;32;20559;-53
2022/01/18 12:21:01;;;;;;;5.87;4.03;;;;;;;;;;4391920;32;20355;-55
2022/01/18 12:23:33;;;;;;;6.83;3.40;;;;;;;;;;4387332;32;20308;-53
2022/01/18 12:34:38;;;;;;;6.20;3.33;;;;;;;;;;4373857;32;20710;-52
2022/01/18 12:40:05;;;;;;;4.97;2.80;;;;;;;;;;4390407;32;20293;-52
2022/01/18 12:45:23;;;;;;;11.57;5.27;;;;;;;;;;4399345;32;20206;-53
2022/01/18 12:47:57;;;;;;;20.87;9.70;;;;;;;;;;4394905;32;20221;-52
2022/01/18 12:50:38;;;;;;;5.53;2.97;;;;;;;;;;4389585;32;20283;-52
2022/01/18 12:53:08;;;;;;;10.00;4.97;;;;;;;;;;4411614;32;20220;-53
2022/01/18 12:55:36;;;;;;;15.37;6.37;;;;;;;;;;4417614;32;20711;-52
2022/01/18 12:58:07;;;;;;;9.77;5.20;;;;;;;;;;4417483;32;20248;-52
2022/01/18 13:00:37;;;;;;;7.10;4.47;;;;;;;;;;4403102;32;20245;-52
2022/01/18 13:03:03;;;;;;;5.00;2.77;;;;;;;;;;4414172;32;20221;-53
2022/01/18 13:05:34;;;;;;;9.60;5.73;;;;;;;;;;4407850;32;20259;-52
2022/01/18 13:08:00;;;;;;;7.50;4.43;;;;;;;;;;4390953;32;20226;-52
2022/01/18 13:10:40;;;;;;;6.23;4.30;;;;;;;;;;4392970;32;20666;-52
2022/01/18 13:13:08;;;;;;;7.93;4.23;;;;;;;;;;4403544;32;20221;-52
2022/01/18 13:16:02;;;;;;;14.83;7.57;;;;;;;;;;4406305;32;20341;-52
2022/01/18 13:26:51;;;;;;;16.37;6.37;;;;;;;;;;4403345;32;20264;-53
2022/01/18 13:29:18;;;;;;;6.33;4.03;;;;;;;;;;4392140;32;20249;-53
2022/01/18 13:31:47;;;;;;;9.97;4.53;;;;;;;;;;4400359;32;20237;-53
2022/01/18 13:34:15;;;;;;;7.87;5.07;;;;;;;;;;4387562;32;20724;-52
2022/01/18 13:36:59;;;;;;;8.83;4.67;;;;;;;;;;4401572;32;20233;-53
2022/01/18 13:39:31;;;;;;;11.13;6.83;;;;;;;;;;4393736;32;20274;-52
2022/01/18 13:41:59;;;;;;;9.43;4.50;;;;;;;;;;4403209;32;20225;-53
2022/01/18 13:44:26;;;;;;;15.13;7.07;;;;;;;;;;4401900;32;20229;-53
2022/01/18 13:46:51;;;;;;;9.30;5.10;;;;;;;;;;4404009;32;20681;-52
2022/01/18 13:49:22;;;;;;;10.50;4.80;;;;;;;;;;4417085;32;20356;-53
2022/01/18 13:52:02;;;;;;;7.87;4.43;;;;;;;;;;4409804;32;20322;-52
2022/01/18 13:54:41;;;;;;;27.50;11.00;;;;;;;;;;4401374;32;20247;-52
2022/01/18 13:57:06;;;;;;;15.03;6.80;;;;;;;;;;4410303;32;20322;-52
2022/01/18 13:59:31;;;;;;;14.43;7.57;;;;;;;;;;4404515;32;20300;-52
2022/01/18 14:02:12;;;;;;;41.33;15.10;;;;;;;;;;4397402;32;20333;-53
2022/01/18 14:04:38;;;;;;;9.93;5.37;;;;;;;;;;4398092;32;20503;-54
2022/01/18 14:07:04;;;;;;;6.47;3.90;;;;;;;;;;4401595;32;20325;-52
2022/01/18 14:09:30;;;;;;;10.53;4.30;;;;;;;;;;4402384;32;20619;-52
2022/01/18 14:11:56;;;;;;;7.27;2.83;;;;;;;;;;4401459;32;20257;-53
2022/01/18 14:14:26;;;;;;;6.97;3.37;;;;;;;;;;4415191;32;20314;-52
2022/01/18 14:16:56;;;;;;;4.80;3.17;;;;;;;;;;4416586;32;20296;-53
2022/01/18 14:19:27;;;;;;;6.27;4.10;;;;;;;;;;4413472;32;20721;-54
2022/01/18 14:21:53;;;;;;;11.37;5.50;;;;;;;;;;4409424;32;20296;-52
2022/01/18 14:24:20;;;;;;;17.33;3.53;;;;;;;;;;4407462;32;20208;-52
2022/01/18 14:26:52;;;;;;;25.70;10.20;;;;;;;;;;4408051;32;20229;-52
2022/01/18 14:29:20;;;;;;;23.70;8.13;;;;;;;;;;4408159;32;20288;-54
2022/01/18 14:31:57;;;;;;;5.43;3.27;;;;;;;;;;4399688;32;20272;-53
2022/01/18 14:34:31;;;;;;;19.13;8.10;;;;;;;;;;4392071;32;20331;-54
2022/01/18 14:36:57;;;;;;;15.10;7.10;;;;;;;;;;4402159;32;20648;-53
2022/01/18 14:39:22;;;;;;;16.97;6.17;;;;;;;;;;4419414;32;20355;-53
2022/01/18 14:41:59;;;;;;;18.57;8.13;;;;;;;;;;4416424;32;20274;-52
2022/01/18 14:44:36;;;;;;;5.80;3.20;;;;;;;;;;4416701;32;20573;-52
2022/01/18 14:47:37;;;;;;;14.17;6.63;;;;;;;;;;4416821;32;20379;-52
2022/01/18 14:50:02;;;;;;;12.60;7.93;;;;;;;;;;4415479;32;20253;-52
2022/01/18 14:52:29;;;;;;;10.97;4.57;;;;;;;;;;4404349;32;20308;-53
2022/01/18 14:54:55;;;;;;;13.50;7.07;;;;;;;;;;4403903;32;20245;-52
2022/01/18 14:57:21;;;;;;;10.90;6.37;;;;;;;;;;4398526;32;20237;-52
2022/01/18 14:59:47;;;;;;;25.37;12.13;;;;;;;;;;4402828;32;20314;-52
2022/01/18 15:02:13;;;;;;;22.27;11.37;;;;;;;;;;4410568;32;20376;-52
2022/01/18 15:04:39;;;;;;;12.87;6.53;;;;;;;;;;4415867;32;20771;-52
2022/01/18 15:07:06;;;;;;;10.40;6.70;;;;;;;;;;4402140;32;20275;-53
2022/01/18 15:09:31;;;;;;;18.73;10.63;;;;;;;;;;4403018;32;20284;-52
2022/01/18 15:11:58;;;;;;;14.50;6.47;;;;;;;;;;4403198;32;20297;-52
2022/01/18 15:14:24;;;;;;;9.80;4.77;;;;;;;;;;4419315;32;20272;-52
2022/01/18 15:16:50;;;;;;;7.97;4.63;;;;;;;;;;4418784;32;20221;-54
2022/01/18 15:19:15;;;;;;;11.03;5.43;;;;;;;;;;4419379;32;20335;-53
2022/01/18 15:21:41;;;;;;;11.50;6.13;;;;;;;;;;4418729;32;20256;-53
2022/01/18 15:24:06;;;;;;;11.07;4.87;;;;;;;;;;4408783;32;20689;-53
2022/01/18 15:26:32;;;;;;;6.93;4.10;;;;;;;;;;4402171;32;20665;-52
2022/01/18 15:28:57;;;;;;;14.23;6.10;;;;;;;;;;4412478;32;20299;-54
2022/01/18 15:31:23;;;;;;;16.60;8.90;;;;;;;;;;4404583;32;20278;-52
2022/01/18 15:33:48;;;;;;;9.10;5.67;;;;;;;;;;4400333;32;20307;-53
2022/01/18 15:36:14;;;;;;;9.63;4.93;;;;;;;;;;4399616;32;20298;-53
2022/01/18 15:38:39;;;;;;;15.33;6.43;;;;;;;;;;4403164;32;20272;-53
2022/01/18 15:41:05;;;;;;;18.47;9.77;;;;;;;;;;4402921;32;20221;-53
2022/01/18 15:43:30;;;;;;;28.47;11.07;;;;;;;;;;4409089;32;20289;-52
2022/01/18 15:45:56;;;;;;;16.30;7.27;;;;;;;;;;4390047;32;20230;-53
2022/01/18 15:48:21;;;;;;;12.23;5.97;;;;;;;;;;4401636;32;20391;-52
2022/01/18 15:50:47;;;;;;;13.67;6.60;;;;;;;;;;4394142;32;20261;-53
2022/01/18 15:53:13;;;;;;;13.47;6.27;;;;;;;;;;4412680;32;20224;-52
2022/01/18 15:55:38;;;;;;;16.37;8.70;;;;;;;;;;4418772;32;20233;-51
2022/01/18 15:58:04;;;;;;;17.07;8.63;;;;;;;;;;4405975;32;20270;-53
2022/01/18 16:00:30;;;;;;;23.10;8.70;;;;;;;;;;4402349;32;20439;-53
2022/01/18 16:02:56;;;;;;;20.87;9.77;;;;;;;;;;4411647;32;20232;-52
2022/01/18 16:05:21;;;;;;;17.07;8.70;;;;;;;;;;4419569;32;20302;-52
2022/01/18 16:07:47;;;;;;;34.27;13.97;;;;;;;;;;4418209;32;20253;-52
2022/01/18 16:10:13;;;;;;;48.57;22.27;;;;;;;;;;4394595;32;20782;-52
2022/01/18 16:12:39;;;;;;;34.70;17.10;;;;;;;;;;4406029;32;20554;-52
2022/01/18 16:15:05;;;;;;;136.73;66.70;;;;;;;;;;4419414;32;20332;-54
2022/01/18 16:17:30;;;;;;;152.07;82.33;;;;;;;;;;4417256;32;20240;-52
2022/01/18 16:19:56;;;;;;;37.03;20.57;;;;;;;;;;4407684;32;20256;-52
2022/01/18 16:22:21;;;;;;;45.90;21.53;;;;;;;;;;4404510;32;20738;-52